New York, NY (10013)

7:38 AM EST on December 20, 2014 (GMT -0500)
Williamsburg | Change Station
CLOSE
Current Station
Personal Weather Station
Location: Brooklyn, NY
Elevation: 64 ft
Nearby Weather Stations

Elev 64 ft 40.72 °N, 73.96 °W | Updated 43 seconds ago

Overcast
Overcast
32.3 °F
Feels Like 30 °F
N
3.1
Wind Variable Wind from North
Gusts 5.4 mph

Today
High -- | Low -- °F
--% Chance of Precip.
Yesterday
High -- | Low -- °F
Precip. -- in
7:16 AM 4:31 PM
Waning Crescent, 3% visible
Pressure 30.26 in
Visibility 10.0 miles
Clouds Overcast 2700 ft
Windchill 30 °F
Dew Point 17 °F
Humidity 50%
Rainfall 0.00 in
Snow Depth Not available.
UV 0 out of 12
Pollen .10 out of 12
Air Quality Not available.
Flu Activity Not available.
METAR KNYC 201151Z AUTO VRB05KT 10SM OVC027 M01/M07 A3028 RMK AO2 SLP247 T10061072 10000 21006 51015 $

More Conditions Fewer Conditions

Pressure 30.26 in
Visibility 10.0 miles
Clouds Overcast 2700 ft
Windchill 30 °F
Dew Point 17 °F
Humidity 50%
Rainfall 0.00 in
Snow Depth Not available.
UV 0 out of 12
Pollen .10 out of 12
Air Quality Not available.
Flu Activity Not available.
METAR KNYC 201151Z AUTO VRB05KT 10SM OVC027 M01/M07 A3028 RMK AO2 SLP247 T10061072 10000 21006 51015 $

More Conditions Fewer Conditions

10-Day Weather Forecast

Almanac

Astronomy

Dec. 20, 2014 Rise Set
Actual Time
Civil Twilight
Nautical Twilight
Astronomical Twilight
Moon
Length of Visible Light
Length of Day
Tomorrow will be .
, % of the Moon is Illuminated

Today's Extremes

State Highs State Lows

Community

WunderPhotos

Upload Photos

1,779,163 photos uploaded!

WunderBlogs® & News

Nearby

Air Quality

  Air Quality AQ Index Pollutant
Not available.

Snow Depth

Station Depth Elevation

Earthquake Activity

City Distance Mag. Time & Date
Minimum magnitude displayed is 2.5.

Coastal Water Temperatures

Place Temperature

Nearby Weather Stations